sensor_id;sensor_type;location;lat;lon;timestamp;P1;durP1;ratioP1;P2;durP2;ratioP2
31238;SDS011;17871;31.584;74.450;2023-06-22T00:01:23;130.70;;;51.85;;
31238;SDS011;17871;31.584;74.450;2023-06-22T00:03:52;128.25;;;51.13;;
31238;SDS011;17871;31.584;74.450;2023-06-22T00:06:26;118.80;;;50.53;;
31238;SDS011;17871;31.584;74.450;2023-06-22T00:08:55;123.15;;;50.00;;
31238;SDS011;17871;31.584;74.450;2023-06-22T00:14:39;173.50;;;58.20;;
31238;SDS011;17871;31.584;74.450;2023-06-22T00:17:07;142.90;;;53.78;;
31238;SDS011;17871;31.584;74.450;2023-06-22T00:19:36;153.13;;;54.03;;
31238;SDS011;17871;31.584;74.450;2023-06-22T00:28:11;125.97;;;53.72;;
31238;SDS011;17871;31.584;74.450;2023-06-22T00:40:02;117.75;;;49.80;;
31238;SDS011;17871;31.584;74.450;2023-06-22T00:42:35;111.28;;;49.85;;
31238;SDS011;17871;31.584;74.450;2023-06-22T00:45:04;133.38;;;50.67;;
31238;SDS011;17871;31.584;74.450;2023-06-22T00:47:34;133.32;;;49.60;;
31238;SDS011;17871;31.584;74.450;2023-06-22T00:50:05;131.55;;;51.45;;
31238;SDS011;17871;31.584;74.450;2023-06-22T00:52:37;112.57;;;48.80;;
31238;SDS011;17871;31.584;74.450;2023-06-22T00:55:11;123.55;;;53.13;;
31238;SDS011;17871;31.584;74.450;2023-06-22T00:57:40;134.40;;;55.28;;
31238;SDS011;17871;31.584;74.450;2023-06-22T01:00:09;144.60;;;52.67;;
31238;SDS011;17871;31.584;74.450;2023-06-22T01:02:40;133.88;;;50.13;;
31238;SDS011;17871;31.584;74.450;2023-06-22T01:05:09;114.32;;;52.40;;
31238;SDS011;17871;31.584;74.450;2023-06-22T01:11:07;119.13;;;51.30;;
31238;SDS011;17871;31.584;74.450;2023-06-22T01:13:49;121.85;;;51.22;;
31238;SDS011;17871;31.584;74.450;2023-06-22T01:16:31;116.32;;;54.95;;
31238;SDS011;17871;31.584;74.450;2023-06-22T01:22:28;146.82;;;59.03;;
31238;SDS011;17871;31.584;74.450;2023-06-22T01:31:15;120.78;;;51.30;;
31238;SDS011;17871;31.584;74.450;2023-06-22T01:36:50;106.60;;;48.03;;
31238;SDS011;17871;31.584;74.450;2023-06-22T01:45:27;99.88;;;41.67;;
31238;SDS011;17871;31.584;74.450;2023-06-22T01:47:56;94.65;;;41.60;;
31238;SDS011;17871;31.584;74.450;2023-06-22T01:53:40;95.85;;;41.28;;
31238;SDS011;17871;31.584;74.450;2023-06-22T01:56:10;107.03;;;40.95;;
31238;SDS011;17871;31.584;74.450;2023-06-22T01:58:41;90.43;;;39.67;;
31238;SDS011;17871;31.584;74.450;2023-06-22T02:02:13;104.00;;;43.60;;
31238;SDS011;17871;31.584;74.450;2023-06-22T02:04:59;105.25;;;43.72;;
31238;SDS011;17871;31.584;74.450;2023-06-22T02:07:34;113.95;;;43.28;;
31238;SDS011;17871;31.584;74.450;2023-06-22T02:11:08;109.93;;;45.28;;
31238;SDS011;17871;31.584;74.450;2023-06-22T02:13:38;112.75;;;42.72;;
31238;SDS011;17871;31.584;74.450;2023-06-22T02:16:11;153.55;;;89.45;;
31238;SDS011;17871;31.584;74.450;2023-06-22T02:25:02;112.00;;;40.28;;
31238;SDS011;17871;31.584;74.450;2023-06-22T02:27:35;121.03;;;38.47;;
31238;SDS011;17871;31.584;74.450;2023-06-22T02:30:08;115.30;;;34.40;;
31238;SDS011;17871;31.584;74.450;2023-06-22T02:32:38;94.93;;;35.88;;
31238;SDS011;17871;31.584;74.450;2023-06-22T02:41:36;88.13;;;32.20;;
31238;SDS011;17871;31.584;74.450;2023-06-22T02:47:33;77.70;;;30.08;;
31238;SDS011;17871;31.584;74.450;2023-06-22T02:50:02;90.03;;;34.95;;
31238;SDS011;17871;31.584;74.450;2023-06-22T02:52:33;84.50;;;34.03;;
31238;SDS011;17871;31.584;74.450;2023-06-22T02:55:02;89.88;;;34.60;;
31238;SDS011;17871;31.584;74.450;2023-06-22T02:57:31;87.90;;;32.20;;
31238;SDS011;17871;31.584;74.450;2023-06-22T03:03:16;80.80;;;27.75;;
31238;SDS011;17871;31.584;74.450;2023-06-22T03:05:45;70.93;;;23.33;;
31238;SDS011;17871;31.584;74.450;2023-06-22T03:08:14;62.10;;;21.95;;
31238;SDS011;17871;31.584;74.450;2023-06-22T03:13:43;61.65;;;13.63;;
31238;SDS011;17871;31.584;74.450;2023-06-22T03:16:14;56.55;;;13.88;;
31238;SDS011;17871;31.584;74.450;2023-06-22T03:18:43;44.40;;;12.23;;
31238;SDS011;17871;31.584;74.450;2023-06-22T03:27:45;41.85;;;9.25;;
31238;SDS011;17871;31.584;74.450;2023-06-22T03:30:15;45.10;;;8.93;;
31238;SDS011;17871;31.584;74.450;2023-06-22T03:32:45;41.90;;;9.13;;
31238;SDS011;17871;31.584;74.450;2023-06-22T03:35:15;45.80;;;10.20;;
31238;SDS011;17871;31.584;74.450;2023-06-22T03:37:43;50.03;;;9.68;;
31238;SDS011;17871;31.584;74.450;2023-06-22T03:40:13;60.33;;;10.13;;
31238;SDS011;17871;31.584;74.450;2023-06-22T03:42:42;87.95;;;11.38;;
31238;SDS011;17871;31.584;74.450;2023-06-22T03:45:22;29.50;;;8.40;;
31238;SDS011;17871;31.584;74.450;2023-06-22T03:47:51;30.10;;;7.50;;
31238;SDS011;17871;31.584;74.450;2023-06-22T03:50:30;36.40;;;7.65;;
31238;SDS011;17871;31.584;74.450;2023-06-22T03:53:01;82.55;;;10.18;;
31238;SDS011;17871;31.584;74.450;2023-06-22T03:55:30;40.38;;;8.48;;
31238;SDS011;17871;31.584;74.450;2023-06-22T03:57:58;44.08;;;6.72;;
31238;SDS011;17871;31.584;74.450;2023-06-22T04:00:33;105.18;;;12.40;;
31238;SDS011;17871;31.584;74.450;2023-06-22T04:03:02;37.35;;;7.60;;
31238;SDS011;17871;31.584;74.450;2023-06-22T04:05:31;35.28;;;7.57;;
31238;SDS011;17871;31.584;74.450;2023-06-22T04:08:00;46.33;;;7.35;;
31238;SDS011;17871;31.584;74.450;2023-06-22T04:10:32;25.80;;;6.60;;
31238;SDS011;17871;31.584;74.450;2023-06-22T04:13:02;29.58;;;6.18;;
31238;SDS011;17871;31.584;74.450;2023-06-22T04:15:31;36.58;;;6.97;;
31238;SDS011;17871;31.584;74.450;2023-06-22T04:20:37;53.78;;;6.15;;
31238;SDS011;17871;31.584;74.450;2023-06-22T04:23:12;41.75;;;7.22;;
31238;SDS011;17871;31.584;74.450;2023-06-22T04:25:41;47.15;;;6.95;;
31238;SDS011;17871;31.584;74.450;2023-06-22T04:31:09;34.42;;;7.63;;
31238;SDS011;17871;31.584;74.450;2023-06-22T04:39:09;34.17;;;6.53;;
31238;SDS011;17871;31.584;74.450;2023-06-22T04:41:39;30.30;;;6.72;;
31238;SDS011;17871;31.584;74.450;2023-06-22T04:44:13;47.30;;;7.38;;
31238;SDS011;17871;31.584;74.450;2023-06-22T04:46:57;69.57;;;10.70;;
31238;SDS011;17871;31.584;74.450;2023-06-22T04:49:31;45.17;;;7.80;;
31238;SDS011;17871;31.584;74.450;2023-06-22T04:52:01;32.42;;;7.43;;
31238;SDS011;17871;31.584;74.450;2023-06-22T04:54:33;39.75;;;7.30;;
31238;SDS011;17871;31.584;74.450;2023-06-22T04:57:04;38.67;;;7.40;;
31238;SDS011;17871;31.584;74.450;2023-06-22T05:02:20;41.97;;;9.18;;
31238;SDS011;17871;31.584;74.450;2023-06-22T05:04:50;30.80;;;7.65;;
31238;SDS011;17871;31.584;74.450;2023-06-22T05:07:24;31.45;;;7.93;;
31238;SDS011;17871;31.584;74.450;2023-06-22T05:10:04;41.55;;;10.63;;
31238;SDS011;17871;31.584;74.450;2023-06-22T05:12:33;38.65;;;7.68;;
31238;SDS011;17871;31.584;74.450;2023-06-22T05:15:02;40.28;;;7.85;;
31238;SDS011;17871;31.584;74.450;2023-06-22T05:17:32;45.25;;;9.80;;
31238;SDS011;17871;31.584;74.450;2023-06-22T05:20:02;44.58;;;10.35;;
31238;SDS011;17871;31.584;74.450;2023-06-22T05:22:34;32.83;;;8.23;;
31238;SDS011;17871;31.584;74.450;2023-06-22T05:25:04;51.35;;;8.00;;
31238;SDS011;17871;31.584;74.450;2023-06-22T05:27:38;30.92;;;7.22;;
31238;SDS011;17871;31.584;74.450;2023-06-22T05:30:07;34.45;;;7.07;;
31238;SDS011;17871;31.584;74.450;2023-06-22T05:32:38;58.13;;;11.30;;
31238;SDS011;17871;31.584;74.450;2023-06-22T05:35:09;47.72;;;9.32;;
31238;SDS011;17871;31.584;74.450;2023-06-22T05:37:39;48.05;;;12.02;;
31238;SDS011;17871;31.584;74.450;2023-06-22T05:40:12;38.70;;;7.85;;
31238;SDS011;17871;31.584;74.450;2023-06-22T05:42:41;40.03;;;7.78;;
31238;SDS011;17871;31.584;74.450;2023-06-22T05:45:10;41.45;;;9.30;;
31238;SDS011;17871;31.584;74.450;2023-06-22T05:47:39;21.48;;;6.60;;
31238;SDS011;17871;31.584;74.450;2023-06-22T05:50:08;32.40;;;7.55;;
31238;SDS011;17871;31.584;74.450;2023-06-22T05:55:08;45.33;;;8.27;;
31238;SDS011;17871;31.584;74.450;2023-06-22T05:57:37;31.70;;;7.00;;
31238;SDS011;17871;31.584;74.450;2023-06-22T06:02:49;36.88;;;9.00;;
31238;SDS011;17871;31.584;74.450;2023-06-22T06:05:18;35.28;;;7.88;;
31238;SDS011;17871;31.584;74.450;2023-06-22T06:07:49;28.40;;;8.23;;
31238;SDS011;17871;31.584;74.450;2023-06-22T06:10:18;42.70;;;10.15;;
31238;SDS011;17871;31.584;74.450;2023-06-22T06:12:48;36.42;;;10.70;;
31238;SDS011;17871;31.584;74.450;2023-06-22T06:15:16;48.03;;;13.73;;
31238;SDS011;17871;31.584;74.450;2023-06-22T06:17:46;51.53;;;12.90;;
31238;SDS011;17871;31.584;74.450;2023-06-22T06:20:21;45.08;;;12.93;;
31238;SDS011;17871;31.584;74.450;2023-06-22T06:22:52;41.33;;;13.35;;
31238;SDS011;17871;31.584;74.450;2023-06-22T06:25:20;40.33;;;13.10;;
31238;SDS011;17871;31.584;74.450;2023-06-22T06:27:50;44.70;;;12.85;;
31238;SDS011;17871;31.584;74.450;2023-06-22T06:30:22;41.45;;;13.90;;
31238;SDS011;17871;31.584;74.450;2023-06-22T06:32:51;50.38;;;14.35;;
31238;SDS011;17871;31.584;74.450;2023-06-22T06:35:21;52.17;;;13.48;;
31238;SDS011;17871;31.584;74.450;2023-06-22T06:37:50;63.78;;;13.35;;
31238;SDS011;17871;31.584;74.450;2023-06-22T06:40:19;53.42;;;13.43;;
31238;SDS011;17871;31.584;74.450;2023-06-22T06:42:48;39.35;;;10.95;;
31238;SDS011;17871;31.584;74.450;2023-06-22T06:45:19;59.10;;;11.68;;
31238;SDS011;17871;31.584;74.450;2023-06-22T06:47:53;54.72;;;13.18;;
31238;SDS011;17871;31.584;74.450;2023-06-22T06:50:22;39.70;;;10.40;;
31238;SDS011;17871;31.584;74.450;2023-06-22T06:52:51;36.00;;;10.50;;
31238;SDS011;17871;31.584;74.450;2023-06-22T06:55:20;39.08;;;10.30;;
31238;SDS011;17871;31.584;74.450;2023-06-22T06:57:52;44.72;;;10.43;;
31238;SDS011;17871;31.584;74.450;2023-06-22T07:00:21;38.65;;;9.50;;
31238;SDS011;17871;31.584;74.450;2023-06-22T07:02:52;35.35;;;9.93;;
31238;SDS011;17871;31.584;74.450;2023-06-22T07:05:22;37.03;;;10.23;;
31238;SDS011;17871;31.584;74.450;2023-06-22T07:07:51;31.88;;;9.35;;
31238;SDS011;17871;31.584;74.450;2023-06-22T07:10:21;34.90;;;9.10;;
31238;SDS011;17871;31.584;74.450;2023-06-22T07:12:52;26.88;;;9.15;;
31238;SDS011;17871;31.584;74.450;2023-06-22T07:15:21;29.75;;;8.85;;
31238;SDS011;17871;31.584;74.450;2023-06-22T07:17:50;36.70;;;9.50;;
31238;SDS011;17871;31.584;74.450;2023-06-22T07:20:19;34.08;;;8.52;;
31238;SDS011;17871;31.584;74.450;2023-06-22T07:22:48;36.88;;;7.72;;
31238;SDS011;17871;31.584;74.450;2023-06-22T07:28:00;38.05;;;7.40;;
31238;SDS011;17871;31.584;74.450;2023-06-22T07:30:33;23.83;;;7.63;;
31238;SDS011;17871;31.584;74.450;2023-06-22T07:36:13;35.38;;;10.88;;
31238;SDS011;17871;31.584;74.450;2023-06-22T07:42:18;39.03;;;9.07;;
31238;SDS011;17871;31.584;74.450;2023-06-22T07:44:48;32.95;;;9.75;;
31238;SDS011;17871;31.584;74.450;2023-06-22T07:47:21;31.98;;;7.60;;
31238;SDS011;17871;31.584;74.450;2023-06-22T07:49:54;30.55;;;7.55;;
31238;SDS011;17871;31.584;74.450;2023-06-22T07:52:25;26.33;;;7.53;;
31238;SDS011;17871;31.584;74.450;2023-06-22T07:54:54;25.02;;;7.93;;
31238;SDS011;17871;31.584;74.450;2023-06-22T07:57:28;43.30;;;8.30;;
31238;SDS011;17871;31.584;74.450;2023-06-22T08:00:05;32.42;;;8.52;;
31238;SDS011;17871;31.584;74.450;2023-06-22T08:02:45;33.75;;;7.35;;
31238;SDS011;17871;31.584;74.450;2023-06-22T08:05:15;24.73;;;6.30;;
31238;SDS011;17871;31.584;74.450;2023-06-22T08:07:49;27.40;;;6.95;;
31238;SDS011;17871;31.584;74.450;2023-06-22T08:13:24;39.00;;;7.45;;
31238;SDS011;17871;31.584;74.450;2023-06-22T08:15:55;40.35;;;9.13;;
31238;SDS011;17871;31.584;74.450;2023-06-22T08:18:23;32.45;;;7.05;;
31238;SDS011;17871;31.584;74.450;2023-06-22T08:20:53;33.75;;;7.47;;
31238;SDS011;17871;31.584;74.450;2023-06-22T08:23:22;57.05;;;8.93;;
31238;SDS011;17871;31.584;74.450;2023-06-22T08:25:52;28.20;;;8.57;;
31238;SDS011;17871;31.584;74.450;2023-06-22T08:30:59;28.25;;;7.45;;
31238;SDS011;17871;31.584;74.450;2023-06-22T08:33:38;39.00;;;7.55;;
31238;SDS011;17871;31.584;74.450;2023-06-22T08:39:16;22.85;;;6.63;;
31238;SDS011;17871;31.584;74.450;2023-06-22T08:41:49;35.50;;;7.88;;
31238;SDS011;17871;31.584;74.450;2023-06-22T08:44:19;32.05;;;7.00;;
31238;SDS011;17871;31.584;74.450;2023-06-22T08:46:48;25.70;;;6.68;;
31238;SDS011;17871;31.584;74.450;2023-06-22T08:49:18;28.57;;;9.47;;
31238;SDS011;17871;31.584;74.450;2023-06-22T08:51:51;27.52;;;7.30;;
31238;SDS011;17871;31.584;74.450;2023-06-22T08:57:30;30.65;;;7.28;;
31238;SDS011;17871;31.584;74.450;2023-06-22T09:00:11;35.72;;;9.55;;
31238;SDS011;17871;31.584;74.450;2023-06-22T09:05:54;34.17;;;7.63;;
31238;SDS011;17871;31.584;74.450;2023-06-22T09:11:18;31.02;;;8.80;;
31238;SDS011;17871;31.584;74.450;2023-06-22T09:13:47;43.05;;;8.10;;
31238;SDS011;17871;31.584;74.450;2023-06-22T09:19:07;44.50;;;9.25;;
31238;SDS011;17871;31.584;74.450;2023-06-22T09:21:36;65.03;;;11.30;;
31238;SDS011;17871;31.584;74.450;2023-06-22T09:29:55;65.03;;;10.93;;
31238;SDS011;17871;31.584;74.450;2023-06-22T09:32:26;43.10;;;9.40;;
31238;SDS011;17871;31.584;74.450;2023-06-22T09:34:55;42.15;;;9.25;;
31238;SDS011;17871;31.584;74.450;2023-06-22T09:37:24;46.17;;;10.55;;
31238;SDS011;17871;31.584;74.450;2023-06-22T09:39:53;32.67;;;11.02;;
31238;SDS011;17871;31.584;74.450;2023-06-22T09:42:22;52.40;;;11.07;;
31238;SDS011;17871;31.584;74.450;2023-06-22T09:44:50;36.35;;;9.30;;
31238;SDS011;17871;31.584;74.450;2023-06-22T09:47:20;36.88;;;11.77;;
31238;SDS011;17871;31.584;74.450;2023-06-22T09:49:49;33.38;;;9.75;;
31238;SDS011;17871;31.584;74.450;2023-06-22T09:52:18;38.35;;;9.45;;
31238;SDS011;17871;31.584;74.450;2023-06-22T09:54:52;32.75;;;8.35;;
31238;SDS011;17871;31.584;74.450;2023-06-22T09:57:21;45.78;;;10.20;;
31238;SDS011;17871;31.584;74.450;2023-06-22T09:59:50;41.28;;;10.15;;
31238;SDS011;17871;31.584;74.450;2023-06-22T10:04:55;46.38;;;10.02;;
31238;SDS011;17871;31.584;74.450;2023-06-22T10:07:24;38.55;;;10.43;;
31238;SDS011;17871;31.584;74.450;2023-06-22T10:09:53;75.72;;;13.93;;
31238;SDS011;17871;31.584;74.450;2023-06-22T10:12:22;32.75;;;9.63;;
31238;SDS011;17871;31.584;74.450;2023-06-22T10:14:51;37.88;;;9.93;;
31238;SDS011;17871;31.584;74.450;2023-06-22T10:17:21;49.23;;;8.80;;
31238;SDS011;17871;31.584;74.450;2023-06-22T10:19:50;45.15;;;10.48;;
31238;SDS011;17871;31.584;74.450;2023-06-22T10:22:20;39.08;;;10.23;;
31238;SDS011;17871;31.584;74.450;2023-06-22T10:24:49;23.67;;;8.98;;
31238;SDS011;17871;31.584;74.450;2023-06-22T10:30:02;38.70;;;9.27;;
31238;SDS011;17871;31.584;74.450;2023-06-22T10:32:47;30.25;;;10.20;;
31238;SDS011;17871;31.584;74.450;2023-06-22T10:35:16;52.88;;;10.40;;
31238;SDS011;17871;31.584;74.450;2023-06-22T10:37:45;37.40;;;10.27;;
31238;SDS011;17871;31.584;74.450;2023-06-22T10:40:15;45.65;;;10.07;;
31238;SDS011;17871;31.584;74.450;2023-06-22T10:42:45;43.45;;;10.18;;
31238;SDS011;17871;31.584;74.450;2023-06-22T10:47:54;44.35;;;9.13;;
31238;SDS011;17871;31.584;74.450;2023-06-22T10:50:24;40.65;;;9.05;;
31238;SDS011;17871;31.584;74.450;2023-06-22T11:03:25;42.10;;;9.70;;
31238;SDS011;17871;31.584;74.450;2023-06-22T11:05:55;52.92;;;11.43;;
31238;SDS011;17871;31.584;74.450;2023-06-22T11:08:23;44.45;;;10.98;;
31238;SDS011;17871;31.584;74.450;2023-06-22T11:10:53;112.28;;;19.80;;
31238;SDS011;17871;31.584;74.450;2023-06-22T11:13:22;68.43;;;11.27;;
31238;SDS011;17871;31.584;74.450;2023-06-22T11:15:53;48.13;;;11.00;;
31238;SDS011;17871;31.584;74.450;2023-06-22T11:18:21;59.78;;;12.88;;
31238;SDS011;17871;31.584;74.450;2023-06-22T11:20:51;42.72;;;11.57;;
31238;SDS011;17871;31.584;74.450;2023-06-22T11:23:20;45.90;;;11.55;;
31238;SDS011;17871;31.584;74.450;2023-06-22T11:25:49;37.40;;;10.57;;
31238;SDS011;17871;31.584;74.450;2023-06-22T11:28:18;55.78;;;9.75;;
31238;SDS011;17871;31.584;74.450;2023-06-22T11:33:17;54.28;;;10.80;;
31238;SDS011;17871;31.584;74.450;2023-06-22T11:35:47;46.38;;;10.25;;
31238;SDS011;17871;31.584;74.450;2023-06-22T11:38:16;56.22;;;10.70;;
31238;SDS011;17871;31.584;74.450;2023-06-22T11:40:45;105.40;;;12.68;;
31238;SDS011;17871;31.584;74.450;2023-06-22T11:43:17;62.45;;;8.70;;
31238;SDS011;17871;31.584;74.450;2023-06-22T11:48:46;44.83;;;9.73;;
31238;SDS011;17871;31.584;74.450;2023-06-22T11:51:18;70.97;;;9.25;;
31238;SDS011;17871;31.584;74.450;2023-06-22T11:53:50;68.50;;;10.52;;
31238;SDS011;17871;31.584;74.450;2023-06-22T11:56:19;53.88;;;10.70;;
31238;SDS011;17871;31.584;74.450;2023-06-22T12:01:37;51.08;;;8.85;;
31238;SDS011;17871;31.584;74.450;2023-06-22T12:04:06;44.50;;;8.10;;
31238;SDS011;17871;31.584;74.450;2023-06-22T12:06:52;105.15;;;13.90;;
31238;SDS011;17871;31.584;74.450;2023-06-22T12:09:21;50.55;;;8.40;;
31238;SDS011;17871;31.584;74.450;2023-06-22T12:11:50;39.58;;;8.15;;
31238;SDS011;17871;31.584;74.450;2023-06-22T12:14:19;55.70;;;10.60;;
31238;SDS011;17871;31.584;74.450;2023-06-22T12:16:51;49.25;;;8.13;;
31238;SDS011;17871;31.584;74.450;2023-06-22T12:19:20;61.33;;;8.98;;
31238;SDS011;17871;31.584;74.450;2023-06-22T12:21:49;35.05;;;7.35;;
31238;SDS011;17871;31.584;74.450;2023-06-22T12:24:18;37.53;;;8.32;;
31238;SDS011;17871;31.584;74.450;2023-06-22T12:26:50;35.80;;;7.97;;
31238;SDS011;17871;31.584;74.450;2023-06-22T12:29:23;51.03;;;10.13;;
31238;SDS011;17871;31.584;74.450;2023-06-22T12:31:52;53.63;;;7.93;;
31238;SDS011;17871;31.584;74.450;2023-06-22T12:34:23;41.83;;;8.77;;
31238;SDS011;17871;31.584;74.450;2023-06-22T12:36:55;46.88;;;7.78;;
31238;SDS011;17871;31.584;74.450;2023-06-22T12:39:25;33.75;;;8.25;;
31238;SDS011;17871;31.584;74.450;2023-06-22T12:41:55;56.10;;;8.93;;
31238;SDS011;17871;31.584;74.450;2023-06-22T12:44:24;45.35;;;9.05;;
31238;SDS011;17871;31.584;74.450;2023-06-22T12:46:53;50.00;;;8.68;;
31238;SDS011;17871;31.584;74.450;2023-06-22T12:49:22;54.70;;;13.13;;
31238;SDS011;17871;31.584;74.450;2023-06-22T12:51:51;54.67;;;12.35;;
31238;SDS011;17871;31.584;74.450;2023-06-22T12:54:19;47.83;;;11.50;;
31238;SDS011;17871;31.584;74.450;2023-06-22T12:56:52;82.35;;;11.95;;
31238;SDS011;17871;31.584;74.450;2023-06-22T12:59:22;59.40;;;14.90;;
31238;SDS011;17871;31.584;74.450;2023-06-22T13:01:51;50.58;;;13.02;;
31238;SDS011;17871;31.584;74.450;2023-06-22T13:04:20;55.25;;;10.60;;
31238;SDS011;17871;31.584;74.450;2023-06-22T13:06:49;36.45;;;8.85;;
31238;SDS011;17871;31.584;74.450;2023-06-22T13:09:18;52.20;;;11.32;;
31238;SDS011;17871;31.584;74.450;2023-06-22T13:11:48;48.95;;;11.50;;
31238;SDS011;17871;31.584;74.450;2023-06-22T13:14:17;35.85;;;11.02;;
31238;SDS011;17871;31.584;74.450;2023-06-22T13:16:45;54.38;;;14.63;;
31238;SDS011;17871;31.584;74.450;2023-06-22T13:19:15;50.38;;;15.02;;
31238;SDS011;17871;31.584;74.450;2023-06-22T13:21:44;43.90;;;9.88;;
31238;SDS011;17871;31.584;74.450;2023-06-22T13:24:13;57.72;;;10.85;;
31238;SDS011;17871;31.584;74.450;2023-06-22T13:26:41;103.88;;;13.07;;
31238;SDS011;17871;31.584;74.450;2023-06-22T13:29:16;72.85;;;14.48;;
31238;SDS011;17871;31.584;74.450;2023-06-22T13:31:45;75.53;;;15.18;;
31238;SDS011;17871;31.584;74.450;2023-06-22T13:34:13;66.53;;;14.25;;
31238;SDS011;17871;31.584;74.450;2023-06-22T13:36:43;62.47;;;15.05;;
31238;SDS011;17871;31.584;74.450;2023-06-22T13:39:11;39.95;;;11.32;;
31238;SDS011;17871;31.584;74.450;2023-06-22T13:41:43;55.95;;;10.30;;
31238;SDS011;17871;31.584;74.450;2023-06-22T13:44:14;69.55;;;15.13;;
31238;SDS011;17871;31.584;74.450;2023-06-22T13:46:43;54.33;;;11.93;;
31238;SDS011;17871;31.584;74.450;2023-06-22T13:49:13;57.63;;;13.40;;
31238;SDS011;17871;31.584;74.450;2023-06-22T13:51:43;88.35;;;14.75;;
31238;SDS011;17871;31.584;74.450;2023-06-22T13:54:17;87.75;;;12.88;;
31238;SDS011;17871;31.584;74.450;2023-06-22T13:56:50;69.93;;;14.13;;
31238;SDS011;17871;31.584;74.450;2023-06-22T13:59:19;87.95;;;11.95;;
31238;SDS011;17871;31.584;74.450;2023-06-22T14:01:49;68.65;;;12.77;;
31238;SDS011;17871;31.584;74.450;2023-06-22T14:04:23;81.93;;;16.08;;
31238;SDS011;17871;31.584;74.450;2023-06-22T14:06:52;72.47;;;16.08;;
31238;SDS011;17871;31.584;74.450;2023-06-22T14:09:24;60.95;;;17.33;;
31238;SDS011;17871;31.584;74.450;2023-06-22T14:11:54;56.22;;;11.23;;
31238;SDS011;17871;31.584;74.450;2023-06-22T14:14:24;60.17;;;11.20;;
31238;SDS011;17871;31.584;74.450;2023-06-22T14:16:52;46.88;;;12.07;;
31238;SDS011;17871;31.584;74.450;2023-06-22T14:19:21;63.92;;;12.15;;
31238;SDS011;17871;31.584;74.450;2023-06-22T14:21:50;49.55;;;12.48;;
31238;SDS011;17871;31.584;74.450;2023-06-22T14:24:19;84.70;;;14.88;;
31238;SDS011;17871;31.584;74.450;2023-06-22T14:26:53;75.50;;;13.32;;
31238;SDS011;17871;31.584;74.450;2023-06-22T14:29:23;47.42;;;12.13;;
31238;SDS011;17871;31.584;74.450;2023-06-22T14:31:52;43.60;;;14.43;;
31238;SDS011;17871;31.584;74.450;2023-06-22T14:34:21;84.22;;;13.88;;
31238;SDS011;17871;31.584;74.450;2023-06-22T14:36:50;70.55;;;13.68;;
31238;SDS011;17871;31.584;74.450;2023-06-22T14:39:19;62.45;;;14.00;;
31238;SDS011;17871;31.584;74.450;2023-06-22T14:41:48;69.28;;;12.60;;
31238;SDS011;17871;31.584;74.450;2023-06-22T14:44:17;71.00;;;10.65;;
31238;SDS011;17871;31.584;74.450;2023-06-22T14:46:46;86.72;;;12.70;;
31238;SDS011;17871;31.584;74.450;2023-06-22T14:49:16;60.70;;;13.60;;
31238;SDS011;17871;31.584;74.450;2023-06-22T14:51:46;67.30;;;12.73;;
31238;SDS011;17871;31.584;74.450;2023-06-22T14:54:15;59.78;;;14.88;;
31238;SDS011;17871;31.584;74.450;2023-06-22T14:56:44;50.03;;;13.02;;
31238;SDS011;17871;31.584;74.450;2023-06-22T14:59:13;60.17;;;12.05;;
31238;SDS011;17871;31.584;74.450;2023-06-22T15:01:42;75.53;;;11.57;;
31238;SDS011;17871;31.584;74.450;2023-06-22T15:04:17;56.65;;;13.48;;
31238;SDS011;17871;31.584;74.450;2023-06-22T15:06:46;45.75;;;10.57;;
31238;SDS011;17871;31.584;74.450;2023-06-22T15:09:15;49.47;;;9.68;;
31238;SDS011;17871;31.584;74.450;2023-06-22T15:11:47;49.85;;;10.73;;
31238;SDS011;17871;31.584;74.450;2023-06-22T15:14:20;44.55;;;10.52;;
31238;SDS011;17871;31.584;74.450;2023-06-22T15:16:49;49.40;;;10.93;;
31238;SDS011;17871;31.584;74.450;2023-06-22T15:19:17;74.97;;;15.95;;
31238;SDS011;17871;31.584;74.450;2023-06-22T15:21:46;57.88;;;15.63;;
31238;SDS011;17871;31.584;74.450;2023-06-22T15:24:15;52.53;;;11.27;;
31238;SDS011;17871;31.584;74.450;2023-06-22T15:26:44;48.90;;;11.18;;
31238;SDS011;17871;31.584;74.450;2023-06-22T15:29:13;38.90;;;12.55;;
31238;SDS011;17871;31.584;74.450;2023-06-22T15:31:42;46.28;;;12.05;;
31238;SDS011;17871;31.584;74.450;2023-06-22T15:34:19;57.88;;;10.15;;
31238;SDS011;17871;31.584;74.450;2023-06-22T15:36:48;49.08;;;11.70;;
31238;SDS011;17871;31.584;74.450;2023-06-22T15:39:19;48.00;;;11.90;;
31238;SDS011;17871;31.584;74.450;2023-06-22T15:41:48;71.93;;;15.98;;
31238;SDS011;17871;31.584;74.450;2023-06-22T15:44:18;44.42;;;10.75;;
31238;SDS011;17871;31.584;74.450;2023-06-22T15:46:47;59.00;;;11.68;;
31238;SDS011;17871;31.584;74.450;2023-06-22T15:49:17;46.47;;;12.13;;
31238;SDS011;17871;31.584;74.450;2023-06-22T15:51:48;54.50;;;11.18;;
31238;SDS011;17871;31.584;74.450;2023-06-22T15:54:17;40.83;;;10.40;;
31238;SDS011;17871;31.584;74.450;2023-06-22T15:56:46;58.30;;;10.75;;
31238;SDS011;17871;31.584;74.450;2023-06-22T15:59:21;58.38;;;12.45;;
31238;SDS011;17871;31.584;74.450;2023-06-22T16:01:51;62.65;;;11.70;;
31238;SDS011;17871;31.584;74.450;2023-06-22T16:04:20;61.08;;;11.88;;
31238;SDS011;17871;31.584;74.450;2023-06-22T16:06:50;47.92;;;10.73;;
31238;SDS011;17871;31.584;74.450;2023-06-22T16:09:19;53.38;;;12.23;;
31238;SDS011;17871;31.584;74.450;2023-06-22T16:11:48;38.38;;;10.98;;
31238;SDS011;17871;31.584;74.450;2023-06-22T16:14:18;50.17;;;11.73;;
31238;SDS011;17871;31.584;74.450;2023-06-22T16:16:52;59.38;;;14.35;;
31238;SDS011;17871;31.584;74.450;2023-06-22T16:19:21;47.65;;;12.07;;
31238;SDS011;17871;31.584;74.450;2023-06-22T16:21:50;50.35;;;9.68;;
31238;SDS011;17871;31.584;74.450;2023-06-22T16:24:19;47.80;;;8.85;;
31238;SDS011;17871;31.584;74.450;2023-06-22T16:26:47;67.25;;;10.02;;
31238;SDS011;17871;31.584;74.450;2023-06-22T16:29:20;39.95;;;8.95;;
31238;SDS011;17871;31.584;74.450;2023-06-22T16:31:49;34.70;;;9.48;;
31238;SDS011;17871;31.584;74.450;2023-06-22T16:34:21;64.82;;;11.73;;
31238;SDS011;17871;31.584;74.450;2023-06-22T16:36:50;87.85;;;14.57;;
31238;SDS011;17871;31.584;74.450;2023-06-22T16:39:20;55.42;;;10.50;;
31238;SDS011;17871;31.584;74.450;2023-06-22T16:41:48;40.97;;;9.40;;
31238;SDS011;17871;31.584;74.450;2023-06-22T16:44:18;42.67;;;9.52;;
31238;SDS011;17871;31.584;74.450;2023-06-22T16:46:46;52.90;;;10.35;;
31238;SDS011;17871;31.584;74.450;2023-06-22T16:49:16;56.30;;;10.68;;
31238;SDS011;17871;31.584;74.450;2023-06-22T16:54:28;70.05;;;11.65;;
31238;SDS011;17871;31.584;74.450;2023-06-22T16:57:01;57.90;;;12.43;;
31238;SDS011;17871;31.584;74.450;2023-06-22T16:59:32;44.88;;;9.63;;
31238;SDS011;17871;31.584;74.450;2023-06-22T17:02:01;55.10;;;10.07;;
31238;SDS011;17871;31.584;74.450;2023-06-22T17:04:31;49.15;;;11.25;;
31238;SDS011;17871;31.584;74.450;2023-06-22T17:09:40;63.05;;;11.35;;
31238;SDS011;17871;31.584;74.450;2023-06-22T17:12:13;57.65;;;11.65;;